This is the latest recevied weather packets stored in our database for station/object DC9VQ-13. If no packets are shown the sender has not sent any weather packets the latest 10 day(s).
| Time | Temp. | Humidity | Pressure | Rain* | Wind** | Luminosity | Snow |
|---|---|---|---|---|---|---|---|
| 1777879452 | 15° C | 67% | 1014.5 hPa | 0 mm | - | - | - |
| 1777878851 | 14.44° C | 68% | 1014.4 hPa | 0 mm | - | - | - |
| 1777878249 | 13.89° C | 70% | 1014.4 hPa | 0 mm | - | - | - |
| 1777877648 | 13.89° C | 71% | 1014.3 hPa | 0 mm | - | - | - |
| 1777877046 | 13.33° C | 73% | 1014.3 hPa | 0 mm | - | - | - |
| 1777876443 | 12.78° C | 76% | 1014.2 hPa | 0 mm | - | - | - |
| 1777875239 | 12.22° C | 78% | 1014.1 hPa | 0 mm | - | - | - |
| 1777874637 | 11.67° C | 78% | 1014.1 hPa | 0 mm | - | - | - |
| 1777874035 | 11.67° C | 77% | 1014 hPa | 0 mm | - | - | - |
| 1777873432 | 11.67° C | 77% | 1014 hPa | 0 mm | - | - | - |
| 1777872831 | 11.11° C | 77% | 1014 hPa | 0 mm | - | - | - |
| 1777872229 | 11.11° C | 77% | 1014 hPa | 0 mm | - | - | - |
| 1777871626 | 11.11° C | 74% | 1014 hPa | 0 mm | - | - | - |
| 1777871025 | 11.11° C | 74% | 1014 hPa | 0 mm | - | - | - |
| 1777870423 | 11.11° C | 74% | 1013.9 hPa | 0 mm | - | - | - |
| 1777869821 | 11.11° C | 73% | 1013.9 hPa | 0 mm | - | - | - |
| 1777869218 | 11.11° C | 73% | 1013.9 hPa | 0 mm | - | - | - |
| 1777868617 | 11.11° C | 73% | 1014 hPa | 0 mm | - | - | - |
| 1777868016 | 11.67° C | 73% | 1013.9 hPa | 0 mm | - | - | - |
| 1777867413 | 11.67° C | 73% | 1014 hPa | 0 mm | - | - | - |
| 1777866811 | 11.67° C | 72% | 1014 hPa | 0 mm | - | - | - |
| 1777866209 | 11.67° C | 71% | 1013.9 hPa | 0 mm | - | - | - |
| 1777865607 | 12.22° C | 71% | 1014 hPa | 0 mm | - | - | - |
| 1777865005 | 12.22° C | 70% | 1014.1 hPa | 0 mm | - | - | - |
| 1777864403 | 12.22° C | 70% | 1014 hPa | 0 mm | - | - | - |
* Rain latest hour (hover to see other rain measurements)
** Current wind speed in m/s (hover to see current wind gust speed)